sensor_id;sensor_type;location;lat;lon;timestamp;P1;durP1;ratioP1;P2;durP2;ratioP2
48667;SDS011;34453;52.198;5.004;2022-11-20T00:02:25;13.27;;;9.90;;
48667;SDS011;34453;52.198;5.004;2022-11-20T00:04:50;11.55;;;8.15;;
48667;SDS011;34453;52.198;5.004;2022-11-20T00:07:16;13.65;;;9.48;;
48667;SDS011;34453;52.198;5.004;2022-11-20T00:09:41;15.23;;;8.82;;
48667;SDS011;34453;52.198;5.004;2022-11-20T00:12:06;13.20;;;9.35;;
48667;SDS011;34453;52.198;5.004;2022-11-20T00:14:31;10.93;;;8.32;;
48667;SDS011;34453;52.198;5.004;2022-11-20T00:16:57;10.35;;;9.05;;
48667;SDS011;34453;52.198;5.004;2022-11-20T00:19:22;11.35;;;8.23;;
48667;SDS011;34453;52.198;5.004;2022-11-20T00:21:47;11.77;;;8.77;;
48667;SDS011;34453;52.198;5.004;2022-11-20T00:24:16;10.80;;;7.57;;
48667;SDS011;34453;52.198;5.004;2022-11-20T00:26:41;9.80;;;7.07;;
48667;SDS011;34453;52.198;5.004;2022-11-20T00:29:08;10.18;;;8.70;;
48667;SDS011;34453;52.198;5.004;2022-11-20T00:31:34;8.68;;;7.78;;
48667;SDS011;34453;52.198;5.004;2022-11-20T00:33:59;10.02;;;8.25;;
48667;SDS011;34453;52.198;5.004;2022-11-20T00:36:25;15.82;;;8.40;;
48667;SDS011;34453;52.198;5.004;2022-11-20T00:38:55;9.77;;;8.77;;
48667;SDS011;34453;52.198;5.004;2022-11-20T00:41:21;11.98;;;8.77;;
48667;SDS011;34453;52.198;5.004;2022-11-20T00:43:46;11.05;;;8.65;;
48667;SDS011;34453;52.198;5.004;2022-11-20T00:46:15;8.60;;;7.72;;
48667;SDS011;34453;52.198;5.004;2022-11-20T00:48:41;9.85;;;8.82;;
48667;SDS011;34453;52.198;5.004;2022-11-20T00:51:06;9.85;;;8.20;;
48667;SDS011;34453;52.198;5.004;2022-11-20T00:53:31;9.07;;;8.07;;
48667;SDS011;34453;52.198;5.004;2022-11-20T00:55:58;10.90;;;7.60;;
48667;SDS011;34453;52.198;5.004;2022-11-20T00:58:24;7.57;;;6.88;;
48667;SDS011;34453;52.198;5.004;2022-11-20T01:00:49;7.93;;;6.93;;
48667;SDS011;34453;52.198;5.004;2022-11-20T01:03:15;10.48;;;8.15;;
48667;SDS011;34453;52.198;5.004;2022-11-20T01:05:41;12.00;;;8.23;;
48667;SDS011;34453;52.198;5.004;2022-11-20T01:08:06;11.43;;;9.32;;
48667;SDS011;34453;52.198;5.004;2022-11-20T01:10:31;12.05;;;8.57;;
48667;SDS011;34453;52.198;5.004;2022-11-20T01:12:57;11.50;;;8.60;;
48667;SDS011;34453;52.198;5.004;2022-11-20T01:15:40;11.85;;;8.75;;
48667;SDS011;34453;52.198;5.004;2022-11-20T01:18:06;12.13;;;8.82;;
48667;SDS011;34453;52.198;5.004;2022-11-20T01:20:34;16.52;;;10.18;;
48667;SDS011;34453;52.198;5.004;2022-11-20T01:23:00;12.50;;;10.25;;
48667;SDS011;34453;52.198;5.004;2022-11-20T01:25:26;17.65;;;9.65;;
48667;SDS011;34453;52.198;5.004;2022-11-20T01:27:52;9.85;;;8.07;;
48667;SDS011;34453;52.198;5.004;2022-11-20T01:30:17;11.70;;;9.38;;
48667;SDS011;34453;52.198;5.004;2022-11-20T01:32:42;14.45;;;10.40;;
48667;SDS011;34453;52.198;5.004;2022-11-20T01:35:08;11.63;;;9.02;;
48667;SDS011;34453;52.198;5.004;2022-11-20T01:37:34;11.70;;;9.50;;
48667;SDS011;34453;52.198;5.004;2022-11-20T01:39:59;13.02;;;9.50;;
48667;SDS011;34453;52.198;5.004;2022-11-20T01:42:25;13.00;;;9.15;;
48667;SDS011;34453;52.198;5.004;2022-11-20T01:47:53;11.70;;;9.65;;
48667;SDS011;34453;52.198;5.004;2022-11-20T01:50:20;13.82;;;9.13;;
48667;SDS011;34453;52.198;5.004;2022-11-20T01:52:51;12.35;;;8.90;;
48667;SDS011;34453;52.198;5.004;2022-11-20T01:55:19;12.30;;;8.95;;
48667;SDS011;34453;52.198;5.004;2022-11-20T01:57:46;16.35;;;9.25;;
48667;SDS011;34453;52.198;5.004;2022-11-20T02:00:15;11.77;;;9.55;;
48667;SDS011;34453;52.198;5.004;2022-11-20T02:02:42;10.23;;;8.40;;
48667;SDS011;34453;52.198;5.004;2022-11-20T02:05:12;11.38;;;8.40;;
48667;SDS011;34453;52.198;5.004;2022-11-20T02:07:39;17.27;;;9.63;;
48667;SDS011;34453;52.198;5.004;2022-11-20T02:10:05;12.63;;;9.90;;
48667;SDS011;34453;52.198;5.004;2022-11-20T02:12:30;13.10;;;9.45;;
48667;SDS011;34453;52.198;5.004;2022-11-20T02:15:15;12.98;;;8.35;;
48667;SDS011;34453;52.198;5.004;2022-11-20T02:17:40;14.52;;;9.10;;
48667;SDS011;34453;52.198;5.004;2022-11-20T02:20:05;11.32;;;9.10;;
48667;SDS011;34453;52.198;5.004;2022-11-20T02:22:33;10.35;;;9.27;;
48667;SDS011;34453;52.198;5.004;2022-11-20T02:25:00;10.98;;;8.73;;
48667;SDS011;34453;52.198;5.004;2022-11-20T02:27:26;9.95;;;8.73;;
48667;SDS011;34453;52.198;5.004;2022-11-20T02:29:53;10.07;;;9.07;;
48667;SDS011;34453;52.198;5.004;2022-11-20T02:32:23;14.13;;;9.85;;
48667;SDS011;34453;52.198;5.004;2022-11-20T02:34:48;14.15;;;10.40;;
48667;SDS011;34453;52.198;5.004;2022-11-20T02:37:14;13.75;;;9.25;;
48667;SDS011;34453;52.198;5.004;2022-11-20T02:39:39;12.05;;;9.13;;
48667;SDS011;34453;52.198;5.004;2022-11-20T02:42:05;18.05;;;10.77;;
48667;SDS011;34453;52.198;5.004;2022-11-20T02:44:30;17.50;;;10.88;;
48667;SDS011;34453;52.198;5.004;2022-11-20T02:46:58;14.73;;;9.75;;
48667;SDS011;34453;52.198;5.004;2022-11-20T02:49:24;14.70;;;9.20;;
48667;SDS011;34453;52.198;5.004;2022-11-20T02:51:50;9.73;;;7.90;;
48667;SDS011;34453;52.198;5.004;2022-11-20T02:54:15;11.10;;;9.07;;
48667;SDS011;34453;52.198;5.004;2022-11-20T02:56:40;12.73;;;9.88;;
48667;SDS011;34453;52.198;5.004;2022-11-20T02:59:06;13.68;;;9.63;;
48667;SDS011;34453;52.198;5.004;2022-11-20T03:01:31;15.02;;;10.95;;
48667;SDS011;34453;52.198;5.004;2022-11-20T03:03:56;12.48;;;10.02;;
48667;SDS011;34453;52.198;5.004;2022-11-20T03:06:22;13.85;;;9.73;;
48667;SDS011;34453;52.198;5.004;2022-11-20T03:08:47;14.05;;;9.95;;
48667;SDS011;34453;52.198;5.004;2022-11-20T03:11:12;14.38;;;9.63;;
48667;SDS011;34453;52.198;5.004;2022-11-20T03:13:38;14.25;;;10.10;;
48667;SDS011;34453;52.198;5.004;2022-11-20T03:16:10;13.15;;;10.57;;
48667;SDS011;34453;52.198;5.004;2022-11-20T03:18:36;17.27;;;11.35;;
48667;SDS011;34453;52.198;5.004;2022-11-20T03:21:01;18.23;;;10.65;;
48667;SDS011;34453;52.198;5.004;2022-11-20T03:23:28;14.13;;;10.45;;
48667;SDS011;34453;52.198;5.004;2022-11-20T03:25:53;12.73;;;9.80;;
48667;SDS011;34453;52.198;5.004;2022-11-20T03:28:19;12.38;;;9.40;;
48667;SDS011;34453;52.198;5.004;2022-11-20T03:30:44;11.95;;;9.40;;
48667;SDS011;34453;52.198;5.004;2022-11-20T03:33:09;18.10;;;10.70;;
48667;SDS011;34453;52.198;5.004;2022-11-20T03:35:35;16.33;;;9.85;;
48667;SDS011;34453;52.198;5.004;2022-11-20T03:38:00;14.68;;;10.43;;
48667;SDS011;34453;52.198;5.004;2022-11-20T03:40:25;15.45;;;10.40;;
48667;SDS011;34453;52.198;5.004;2022-11-20T03:42:50;15.38;;;10.73;;
48667;SDS011;34453;52.198;5.004;2022-11-20T03:45:16;14.75;;;12.02;;
48667;SDS011;34453;52.198;5.004;2022-11-20T03:47:42;17.35;;;11.77;;
48667;SDS011;34453;52.198;5.004;2022-11-20T03:50:08;17.23;;;12.38;;
48667;SDS011;34453;52.198;5.004;2022-11-20T03:52:34;18.95;;;12.57;;
48667;SDS011;34453;52.198;5.004;2022-11-20T03:54:59;16.52;;;12.15;;
48667;SDS011;34453;52.198;5.004;2022-11-20T03:57:24;17.13;;;12.63;;
48667;SDS011;34453;52.198;5.004;2022-11-20T03:59:49;23.70;;;12.75;;
48667;SDS011;34453;52.198;5.004;2022-11-20T04:02:15;15.65;;;11.57;;
48667;SDS011;34453;52.198;5.004;2022-11-20T04:04:40;15.75;;;11.10;;
48667;SDS011;34453;52.198;5.004;2022-11-20T04:07:05;20.15;;;12.38;;
48667;SDS011;34453;52.198;5.004;2022-11-20T04:09:30;24.85;;;14.80;;
48667;SDS011;34453;52.198;5.004;2022-11-20T04:11:55;18.85;;;13.05;;
48667;SDS011;34453;52.198;5.004;2022-11-20T04:14:21;18.65;;;13.38;;
48667;SDS011;34453;52.198;5.004;2022-11-20T04:16:46;20.63;;;12.20;;
48667;SDS011;34453;52.198;5.004;2022-11-20T04:19:12;18.95;;;12.57;;
48667;SDS011;34453;52.198;5.004;2022-11-20T04:21:38;17.50;;;11.95;;
48667;SDS011;34453;52.198;5.004;2022-11-20T04:24:03;19.77;;;13.27;;
48667;SDS011;34453;52.198;5.004;2022-11-20T04:26:29;16.08;;;12.48;;
48667;SDS011;34453;52.198;5.004;2022-11-20T04:28:55;18.00;;;12.13;;
48667;SDS011;34453;52.198;5.004;2022-11-20T04:31:21;18.13;;;11.85;;
48667;SDS011;34453;52.198;5.004;2022-11-20T04:33:47;22.25;;;12.73;;
48667;SDS011;34453;52.198;5.004;2022-11-20T04:36:13;20.92;;;12.52;;
48667;SDS011;34453;52.198;5.004;2022-11-20T04:38:39;20.15;;;12.13;;
48667;SDS011;34453;52.198;5.004;2022-11-20T04:41:05;19.70;;;13.23;;
48667;SDS011;34453;52.198;5.004;2022-11-20T04:43:31;17.95;;;12.00;;
48667;SDS011;34453;52.198;5.004;2022-11-20T04:45:57;16.67;;;11.60;;
48667;SDS011;34453;52.198;5.004;2022-11-20T04:48:22;23.10;;;13.10;;
48667;SDS011;34453;52.198;5.004;2022-11-20T04:50:48;14.70;;;11.50;;
48667;SDS011;34453;52.198;5.004;2022-11-20T04:53:13;13.80;;;10.65;;
48667;SDS011;34453;52.198;5.004;2022-11-20T04:55:39;13.68;;;10.82;;
48667;SDS011;34453;52.198;5.004;2022-11-20T04:58:04;16.95;;;11.73;;
48667;SDS011;34453;52.198;5.004;2022-11-20T05:00:29;17.40;;;11.35;;
48667;SDS011;34453;52.198;5.004;2022-11-20T05:02:54;16.30;;;11.13;;
48667;SDS011;34453;52.198;5.004;2022-11-20T05:05:20;14.45;;;11.57;;
48667;SDS011;34453;52.198;5.004;2022-11-20T05:07:45;18.10;;;11.77;;
48667;SDS011;34453;52.198;5.004;2022-11-20T05:10:10;17.10;;;11.88;;
48667;SDS011;34453;52.198;5.004;2022-11-20T05:12:35;15.68;;;11.45;;
48667;SDS011;34453;52.198;5.004;2022-11-20T05:15:01;17.05;;;11.25;;
48667;SDS011;34453;52.198;5.004;2022-11-20T05:17:26;15.65;;;10.98;;
48667;SDS011;34453;52.198;5.004;2022-11-20T05:19:51;16.80;;;11.75;;
48667;SDS011;34453;52.198;5.004;2022-11-20T05:22:16;18.48;;;12.63;;
48667;SDS011;34453;52.198;5.004;2022-11-20T05:24:42;20.42;;;11.73;;
48667;SDS011;34453;52.198;5.004;2022-11-20T05:27:07;18.55;;;12.18;;
48667;SDS011;34453;52.198;5.004;2022-11-20T05:29:32;17.10;;;11.80;;
48667;SDS011;34453;52.198;5.004;2022-11-20T05:31:57;16.45;;;12.27;;
48667;SDS011;34453;52.198;5.004;2022-11-20T05:34:23;25.23;;;12.10;;
48667;SDS011;34453;52.198;5.004;2022-11-20T05:36:48;16.60;;;11.43;;
48667;SDS011;34453;52.198;5.004;2022-11-20T05:39:13;18.40;;;11.35;;
48667;SDS011;34453;52.198;5.004;2022-11-20T05:41:38;16.17;;;11.98;;
48667;SDS011;34453;52.198;5.004;2022-11-20T05:44:04;15.63;;;11.48;;
48667;SDS011;34453;52.198;5.004;2022-11-20T05:46:29;17.40;;;11.70;;
48667;SDS011;34453;52.198;5.004;2022-11-20T05:48:55;17.25;;;11.38;;
48667;SDS011;34453;52.198;5.004;2022-11-20T05:51:20;19.17;;;12.18;;
48667;SDS011;34453;52.198;5.004;2022-11-20T05:53:45;18.05;;;12.07;;
48667;SDS011;34453;52.198;5.004;2022-11-20T05:56:13;18.10;;;12.35;;
48667;SDS011;34453;52.198;5.004;2022-11-20T05:58:39;19.33;;;11.90;;
48667;SDS011;34453;52.198;5.004;2022-11-20T06:01:06;18.33;;;12.48;;
48667;SDS011;34453;52.198;5.004;2022-11-20T06:03:31;18.02;;;12.52;;
48667;SDS011;34453;52.198;5.004;2022-11-20T06:05:58;19.92;;;12.73;;
48667;SDS011;34453;52.198;5.004;2022-11-20T06:08:23;17.33;;;12.43;;
48667;SDS011;34453;52.198;5.004;2022-11-20T06:10:48;20.60;;;13.50;;
48667;SDS011;34453;52.198;5.004;2022-11-20T06:13:14;18.00;;;12.68;;
48667;SDS011;34453;52.198;5.004;2022-11-20T06:15:39;23.27;;;13.45;;
48667;SDS011;34453;52.198;5.004;2022-11-20T06:18:04;17.95;;;12.10;;
48667;SDS011;34453;52.198;5.004;2022-11-20T06:20:29;14.55;;;11.88;;
48667;SDS011;34453;52.198;5.004;2022-11-20T06:22:55;19.95;;;13.30;;
48667;SDS011;34453;52.198;5.004;2022-11-20T06:25:20;19.02;;;12.80;;
48667;SDS011;34453;52.198;5.004;2022-11-20T06:27:45;20.25;;;13.10;;
48667;SDS011;34453;52.198;5.004;2022-11-20T06:30:11;19.38;;;12.93;;
48667;SDS011;34453;52.198;5.004;2022-11-20T06:32:36;18.75;;;12.70;;
48667;SDS011;34453;52.198;5.004;2022-11-20T06:35:01;17.77;;;12.38;;
48667;SDS011;34453;52.198;5.004;2022-11-20T06:37:26;17.30;;;12.68;;
48667;SDS011;34453;52.198;5.004;2022-11-20T06:39:52;19.05;;;13.48;;
48667;SDS011;34453;52.198;5.004;2022-11-20T06:42:17;22.17;;;13.52;;
48667;SDS011;34453;52.198;5.004;2022-11-20T06:44:42;18.67;;;12.43;;
48667;SDS011;34453;52.198;5.004;2022-11-20T06:47:08;20.35;;;13.07;;
48667;SDS011;34453;52.198;5.004;2022-11-20T06:49:33;22.10;;;13.23;;
48667;SDS011;34453;52.198;5.004;2022-11-20T06:51:59;15.30;;;11.73;;
48667;SDS011;34453;52.198;5.004;2022-11-20T06:54:24;30.08;;;13.65;;
48667;SDS011;34453;52.198;5.004;2022-11-20T06:56:49;18.50;;;12.63;;
48667;SDS011;34453;52.198;5.004;2022-11-20T06:59:15;20.08;;;12.05;;
48667;SDS011;34453;52.198;5.004;2022-11-20T07:01:40;17.90;;;12.38;;
48667;SDS011;34453;52.198;5.004;2022-11-20T07:04:05;18.33;;;12.60;;
48667;SDS011;34453;52.198;5.004;2022-11-20T07:06:30;18.38;;;12.82;;
48667;SDS011;34453;52.198;5.004;2022-11-20T07:08:56;17.17;;;11.15;;
48667;SDS011;34453;52.198;5.004;2022-11-20T07:11:21;18.02;;;12.15;;
48667;SDS011;34453;52.198;5.004;2022-11-20T07:13:46;19.83;;;12.85;;
48667;SDS011;34453;52.198;5.004;2022-11-20T07:16:11;18.75;;;13.85;;
48667;SDS011;34453;52.198;5.004;2022-11-20T07:18:37;21.17;;;13.70;;
48667;SDS011;34453;52.198;5.004;2022-11-20T07:21:06;22.55;;;12.82;;
48667;SDS011;34453;52.198;5.004;2022-11-20T07:23:31;16.77;;;13.27;;
48667;SDS011;34453;52.198;5.004;2022-11-20T07:25:57;19.92;;;13.88;;
48667;SDS011;34453;52.198;5.004;2022-11-20T07:28:22;22.27;;;14.45;;
48667;SDS011;34453;52.198;5.004;2022-11-20T07:30:51;25.42;;;14.60;;
48667;SDS011;34453;52.198;5.004;2022-11-20T07:33:16;20.52;;;14.70;;
48667;SDS011;34453;52.198;5.004;2022-11-20T07:35:41;23.17;;;14.48;;
48667;SDS011;34453;52.198;5.004;2022-11-20T07:38:06;26.63;;;15.07;;
48667;SDS011;34453;52.198;5.004;2022-11-20T07:40:33;23.40;;;14.75;;
48667;SDS011;34453;52.198;5.004;2022-11-20T07:42:58;21.75;;;13.68;;
48667;SDS011;34453;52.198;5.004;2022-11-20T07:45:23;19.23;;;13.57;;
48667;SDS011;34453;52.198;5.004;2022-11-20T07:47:49;24.33;;;14.80;;
48667;SDS011;34453;52.198;5.004;2022-11-20T07:50:14;19.25;;;13.93;;
48667;SDS011;34453;52.198;5.004;2022-11-20T07:52:39;20.63;;;15.15;;
48667;SDS011;34453;52.198;5.004;2022-11-20T07:55:05;22.35;;;15.38;;
48667;SDS011;34453;52.198;5.004;2022-11-20T07:57:31;21.60;;;14.68;;
48667;SDS011;34453;52.198;5.004;2022-11-20T07:59:56;24.38;;;14.15;;
48667;SDS011;34453;52.198;5.004;2022-11-20T08:02:21;21.92;;;14.00;;
48667;SDS011;34453;52.198;5.004;2022-11-20T08:04:46;22.17;;;15.05;;
48667;SDS011;34453;52.198;5.004;2022-11-20T08:07:12;22.60;;;16.02;;
48667;SDS011;34453;52.198;5.004;2022-11-20T08:09:37;23.27;;;15.77;;
48667;SDS011;34453;52.198;5.004;2022-11-20T08:12:02;22.92;;;14.85;;
48667;SDS011;34453;52.198;5.004;2022-11-20T08:14:46;21.88;;;14.70;;
48667;SDS011;34453;52.198;5.004;2022-11-20T08:17:11;20.25;;;13.82;;
48667;SDS011;34453;52.198;5.004;2022-11-20T08:19:37;30.00;;;15.95;;
48667;SDS011;34453;52.198;5.004;2022-11-20T08:22:02;27.70;;;18.63;;
48667;SDS011;34453;52.198;5.004;2022-11-20T08:24:27;38.08;;;27.38;;
48667;SDS011;34453;52.198;5.004;2022-11-20T08:26:53;26.75;;;19.02;;
48667;SDS011;34453;52.198;5.004;2022-11-20T08:29:18;27.33;;;17.13;;
48667;SDS011;34453;52.198;5.004;2022-11-20T08:31:43;26.05;;;19.52;;
48667;SDS011;34453;52.198;5.004;2022-11-20T08:34:09;22.67;;;15.73;;
48667;SDS011;34453;52.198;5.004;2022-11-20T08:36:34;62.80;;;36.22;;
48667;SDS011;34453;52.198;5.004;2022-11-20T08:39:00;28.55;;;18.23;;
48667;SDS011;34453;52.198;5.004;2022-11-20T08:41:26;30.10;;;19.90;;
48667;SDS011;34453;52.198;5.004;2022-11-20T08:43:57;27.50;;;16.48;;
48667;SDS011;34453;52.198;5.004;2022-11-20T08:46:26;24.92;;;16.55;;
48667;SDS011;34453;52.198;5.004;2022-11-20T08:48:52;26.42;;;16.40;;
48667;SDS011;34453;52.198;5.004;2022-11-20T08:51:17;23.30;;;15.80;;
48667;SDS011;34453;52.198;5.004;2022-11-20T08:53:43;27.05;;;16.52;;
48667;SDS011;34453;52.198;5.004;2022-11-20T08:56:08;32.42;;;16.05;;
48667;SDS011;34453;52.198;5.004;2022-11-20T08:58:34;28.42;;;17.65;;
48667;SDS011;34453;52.198;5.004;2022-11-20T09:01:00;24.60;;;16.73;;
48667;SDS011;34453;52.198;5.004;2022-11-20T09:03:25;40.65;;;24.27;;
48667;SDS011;34453;52.198;5.004;2022-11-20T09:05:56;43.42;;;24.95;;
48667;SDS011;34453;52.198;5.004;2022-11-20T09:08:21;70.88;;;49.17;;
48667;SDS011;34453;52.198;5.004;2022-11-20T09:10:50;26.98;;;19.30;;
48667;SDS011;34453;52.198;5.004;2022-11-20T09:13:15;36.45;;;24.38;;
48667;SDS011;34453;52.198;5.004;2022-11-20T09:15:41;91.82;;;63.63;;
48667;SDS011;34453;52.198;5.004;2022-11-20T09:18:06;41.80;;;24.55;;
48667;SDS011;34453;52.198;5.004;2022-11-20T09:20:31;33.13;;;18.42;;
48667;SDS011;34453;52.198;5.004;2022-11-20T09:22:57;28.48;;;18.20;;
48667;SDS011;34453;52.198;5.004;2022-11-20T09:25:22;21.15;;;15.88;;
48667;SDS011;34453;52.198;5.004;2022-11-20T09:27:47;30.67;;;20.58;;
48667;SDS011;34453;52.198;5.004;2022-11-20T09:30:13;27.45;;;16.15;;
48667;SDS011;34453;52.198;5.004;2022-11-20T09:32:39;24.60;;;17.85;;
48667;SDS011;34453;52.198;5.004;2022-11-20T09:35:04;27.60;;;16.35;;
48667;SDS011;34453;52.198;5.004;2022-11-20T09:37:30;32.05;;;17.73;;
48667;SDS011;34453;52.198;5.004;2022-11-20T09:39:55;29.50;;;16.67;;
48667;SDS011;34453;52.198;5.004;2022-11-20T09:45:24;24.55;;;17.10;;
48667;SDS011;34453;52.198;5.004;2022-11-20T09:50:45;22.80;;;15.93;;
48667;SDS011;34453;52.198;5.004;2022-11-20T09:53:36;27.35;;;17.58;;
48667;SDS011;34453;52.198;5.004;2022-11-20T09:56:00;25.77;;;16.98;;
48667;SDS011;34453;52.198;5.004;2022-11-20T10:00:51;31.95;;;17.38;;
48667;SDS011;34453;52.198;5.004;2022-11-20T10:03:19;28.38;;;18.52;;
48667;SDS011;34453;52.198;5.004;2022-11-20T10:05:51;27.42;;;16.95;;
48667;SDS011;34453;52.198;5.004;2022-11-20T10:10:50;24.70;;;15.93;;
48667;SDS011;34453;52.198;5.004;2022-11-20T10:13:25;25.05;;;16.65;;
48667;SDS011;34453;52.198;5.004;2022-11-20T10:16:02;33.67;;;17.70;;
48667;SDS011;34453;52.198;5.004;2022-11-20T10:23:52;28.73;;;17.63;;
48667;SDS011;34453;52.198;5.004;2022-11-20T10:26:21;23.95;;;16.30;;
48667;SDS011;34453;52.198;5.004;2022-11-20T10:31:30;25.13;;;16.40;;
48667;SDS011;34453;52.198;5.004;2022-11-20T10:33:57;25.85;;;16.20;;
48667;SDS011;34453;52.198;5.004;2022-11-20T10:36:28;28.50;;;18.10;;
48667;SDS011;34453;52.198;5.004;2022-11-20T10:38:57;28.50;;;18.08;;
48667;SDS011;34453;52.198;5.004;2022-11-20T10:41:26;27.17;;;16.10;;
48667;SDS011;34453;52.198;5.004;2022-11-20T10:44:01;27.63;;;16.10;;
48667;SDS011;34453;52.198;5.004;2022-11-20T10:46:33;26.10;;;17.77;;
48667;SDS011;34453;52.198;5.004;2022-11-20T10:49:02;30.38;;;18.45;;
48667;SDS011;34453;52.198;5.004;2022-11-20T10:51:37;25.88;;;17.70;;
48667;SDS011;34453;52.198;5.004;2022-11-20T10:54:43;26.75;;;17.30;;
48667;SDS011;34453;52.198;5.004;2022-11-20T10:57:11;28.75;;;20.05;;
48667;SDS011;34453;52.198;5.004;2022-11-20T10:59:48;26.02;;;17.15;;
48667;SDS011;34453;52.198;5.004;2022-11-20T11:02:16;28.75;;;18.40;;
48667;SDS011;34453;52.198;5.004;2022-11-20T11:04:46;30.33;;;19.33;;
48667;SDS011;34453;52.198;5.004;2022-11-20T11:09:44;29.08;;;18.52;;
48667;SDS011;34453;52.198;5.004;2022-11-20T11:12:11;34.05;;;19.73;;
48667;SDS011;34453;52.198;5.004;2022-11-20T11:14:49;30.60;;;19.00;;
48667;SDS011;34453;52.198;5.004;2022-11-20T11:17:23;30.67;;;20.23;;
48667;SDS011;34453;52.198;5.004;2022-11-20T11:20:05;31.58;;;18.83;;
48667;SDS011;34453;52.198;5.004;2022-11-20T11:22:32;33.33;;;19.08;;
48667;SDS011;34453;52.198;5.004;2022-11-20T11:24:58;32.33;;;20.02;;
48667;SDS011;34453;52.198;5.004;2022-11-20T11:27:23;34.03;;;21.75;;
48667;SDS011;34453;52.198;5.004;2022-11-20T11:29:49;30.42;;;20.45;;
48667;SDS011;34453;52.198;5.004;2022-11-20T11:32:15;36.08;;;19.88;;
48667;SDS011;34453;52.198;5.004;2022-11-20T11:34:41;35.90;;;19.55;;
48667;SDS011;34453;52.198;5.004;2022-11-20T11:37:17;30.83;;;19.95;;
48667;SDS011;34453;52.198;5.004;2022-11-20T11:39:43;33.40;;;20.25;;
48667;SDS011;34453;52.198;5.004;2022-11-20T11:42:11;36.20;;;22.38;;
48667;SDS011;34453;52.198;5.004;2022-11-20T11:44:38;37.08;;;22.95;;
48667;SDS011;34453;52.198;5.004;2022-11-20T11:52:27;35.45;;;21.67;;
48667;SDS011;34453;52.198;5.004;2022-11-20T11:54:53;35.17;;;22.25;;
48667;SDS011;34453;52.198;5.004;2022-11-20T11:59:59;31.63;;;21.88;;
48667;SDS011;34453;52.198;5.004;2022-11-20T12:04:54;32.22;;;20.08;;
48667;SDS011;34453;52.198;5.004;2022-11-20T12:07:29;39.53;;;24.65;;
48667;SDS011;34453;52.198;5.004;2022-11-20T12:10:00;39.35;;;21.17;;
48667;SDS011;34453;52.198;5.004;2022-11-20T12:12:31;40.90;;;22.98;;
48667;SDS011;34453;52.198;5.004;2022-11-20T12:15:00;45.42;;;23.08;;
48667;SDS011;34453;52.198;5.004;2022-11-20T12:17:25;40.83;;;22.63;;
48667;SDS011;34453;52.198;5.004;2022-11-20T12:19:51;42.15;;;23.40;;
48667;SDS011;34453;52.198;5.004;2022-11-20T12:30:10;49.95;;;24.80;;
48667;SDS011;34453;52.198;5.004;2022-11-20T12:40:50;43.47;;;24.60;;
48667;SDS011;34453;52.198;5.004;2022-11-20T12:43:21;46.10;;;24.35;;
48667;SDS011;34453;52.198;5.004;2022-11-20T12:46:12;53.55;;;26.27;;
48667;SDS011;34453;52.198;5.004;2022-11-20T12:58:55;46.05;;;25.90;;
48667;SDS011;34453;52.198;5.004;2022-11-20T13:01:47;51.88;;;25.45;;
48667;SDS011;34453;52.198;5.004;2022-11-20T13:06:55;67.63;;;32.08;;
48667;SDS011;34453;52.198;5.004;2022-11-20T13:09:23;130.77;;;55.53;;
48667;SDS011;34453;52.198;5.004;2022-11-20T13:12:03;100.70;;;45.00;;
48667;SDS011;34453;52.198;5.004;2022-11-20T13:14:34;123.72;;;61.42;;
48667;SDS011;34453;52.198;5.004;2022-11-20T13:17:10;68.55;;;37.38;;
48667;SDS011;34453;52.198;5.004;2022-11-20T13:19:37;55.42;;;32.45;;
48667;SDS011;34453;52.198;5.004;2022-11-20T13:22:05;93.32;;;46.95;;
48667;SDS011;34453;52.198;5.004;2022-11-20T13:24:31;75.05;;;40.35;;
48667;SDS011;34453;52.198;5.004;2022-11-20T13:29:25;73.78;;;33.60;;
48667;SDS011;34453;52.198;5.004;2022-11-20T13:32:00;101.65;;;52.78;;
48667;SDS011;34453;52.198;5.004;2022-11-20T13:34:27;79.38;;;41.83;;
48667;SDS011;34453;52.198;5.004;2022-11-20T13:36:55;58.92;;;31.60;;
48667;SDS011;34453;52.198;5.004;2022-11-20T13:39:25;59.65;;;32.35;;
48667;SDS011;34453;52.198;5.004;2022-11-20T13:41:55;72.85;;;36.28;;
48667;SDS011;34453;52.198;5.004;2022-11-20T13:44:33;83.10;;;38.70;;
48667;SDS011;34453;52.198;5.004;2022-11-20T13:47:00;59.58;;;31.40;;
48667;SDS011;34453;52.198;5.004;2022-11-20T13:49:39;131.40;;;58.08;;
48667;SDS011;34453;52.198;5.004;2022-11-20T13:57:46;68.38;;;34.28;;
48667;SDS011;34453;52.198;5.004;2022-11-20T14:00:17;59.33;;;30.25;;
48667;SDS011;34453;52.198;5.004;2022-11-20T14:02:44;60.17;;;27.10;;
48667;SDS011;34453;52.198;5.004;2022-11-20T14:05:17;65.03;;;28.67;;
48667;SDS011;34453;52.198;5.004;2022-11-20T14:07:44;61.17;;;29.30;;
48667;SDS011;34453;52.198;5.004;2022-11-20T14:10:19;56.20;;;28.95;;
48667;SDS011;34453;52.198;5.004;2022-11-20T14:12:44;60.67;;;28.85;;
48667;SDS011;34453;52.198;5.004;2022-11-20T14:15:24;56.35;;;28.10;;
48667;SDS011;34453;52.198;5.004;2022-11-20T14:17:49;50.08;;;26.58;;
48667;SDS011;34453;52.198;5.004;2022-11-20T14:20:15;62.05;;;28.10;;
48667;SDS011;34453;52.198;5.004;2022-11-20T14:22:50;78.10;;;36.40;;
48667;SDS011;34453;52.198;5.004;2022-11-20T14:27:44;66.80;;;29.10;;
48667;SDS011;34453;52.198;5.004;2022-11-20T14:30:15;67.43;;;29.45;;
48667;SDS011;34453;52.198;5.004;2022-11-20T14:32:42;62.05;;;30.50;;
48667;SDS011;34453;52.198;5.004;2022-11-20T14:35:09;57.80;;;27.25;;
48667;SDS011;34453;52.198;5.004;2022-11-20T14:37:36;59.83;;;29.85;;
48667;SDS011;34453;52.198;5.004;2022-11-20T14:40:04;68.00;;;35.72;;
48667;SDS011;34453;52.198;5.004;2022-11-20T14:42:30;61.08;;;32.55;;
48667;SDS011;34453;52.198;5.004;2022-11-20T14:44:59;62.63;;;31.20;;
48667;SDS011;34453;52.198;5.004;2022-11-20T14:47:26;62.08;;;29.95;;
48667;SDS011;34453;52.198;5.004;2022-11-20T14:49:52;65.30;;;32.40;;
48667;SDS011;34453;52.198;5.004;2022-11-20T14:52:19;69.60;;;35.00;;
48667;SDS011;34453;52.198;5.004;2022-11-20T14:54:46;73.90;;;35.25;;
48667;SDS011;34453;52.198;5.004;2022-11-20T14:57:28;60.20;;;30.60;;
48667;SDS011;34453;52.198;5.004;2022-11-20T15:02:31;68.57;;;31.00;;
48667;SDS011;34453;52.198;5.004;2022-11-20T15:04:57;62.60;;;30.77;;
48667;SDS011;34453;52.198;5.004;2022-11-20T15:07:28;66.72;;;31.80;;
48667;SDS011;34453;52.198;5.004;2022-11-20T15:10:06;60.17;;;30.30;;
48667;SDS011;34453;52.198;5.004;2022-11-20T15:12:34;61.97;;;29.42;;
48667;SDS011;34453;52.198;5.004;2022-11-20T15:15:00;62.95;;;29.60;;
48667;SDS011;34453;52.198;5.004;2022-11-20T15:17:26;64.35;;;32.92;;
48667;SDS011;34453;52.198;5.004;2022-11-20T15:19:51;59.40;;;29.75;;
48667;SDS011;34453;52.198;5.004;2022-11-20T15:22:18;60.92;;;29.10;;
48667;SDS011;34453;52.198;5.004;2022-11-20T15:24:44;57.58;;;29.25;;
48667;SDS011;34453;52.198;5.004;2022-11-20T15:27:09;58.83;;;30.70;;
48667;SDS011;34453;52.198;5.004;2022-11-20T15:29:35;52.85;;;28.70;;
48667;SDS011;34453;52.198;5.004;2022-11-20T15:32:00;55.17;;;28.00;;
48667;SDS011;34453;52.198;5.004;2022-11-20T15:34:26;55.75;;;28.45;;
48667;SDS011;34453;52.198;5.004;2022-11-20T15:36:51;57.00;;;28.98;;
48667;SDS011;34453;52.198;5.004;2022-11-20T15:39:18;46.10;;;27.52;;
48667;SDS011;34453;52.198;5.004;2022-11-20T15:41:43;46.38;;;25.13;;